createdAt,value
2022-11-01T00:00:05.337Z,9.04
2022-11-01T00:03:15.484Z,9.45
2022-11-01T00:06:18.433Z,9.72
2022-11-01T00:09:21.369Z,9.85
2022-11-01T00:12:24.204Z,10.08
2022-11-01T00:15:28.455Z,10.10
2022-11-01T00:18:31.361Z,10.05
2022-11-01T00:21:34.266Z,10.16
2022-11-01T00:24:37.195Z,10.20
2022-11-01T00:27:40.140Z,10.22
2022-11-01T00:30:44.606Z,10.17
2022-11-01T00:33:47.667Z,10.28
2022-11-01T00:36:50.667Z,10.25
2022-11-01T00:39:53.569Z,10.23
2022-11-01T00:42:56.557Z,10.29
2022-11-01T00:46:01.583Z,10.32
2022-11-01T00:49:04.736Z,10.28
2022-11-01T00:52:07.710Z,10.27
2022-11-01T00:55:10.900Z,10.24
2022-11-01T00:58:13.895Z,10.37
2022-11-01T01:01:18.180Z,10.42
2022-11-01T01:04:21.258Z,10.33
2022-11-01T01:07:24.462Z,10.28
2022-11-01T01:10:27.417Z,10.22
2022-11-01T01:13:30.432Z,10.16
2022-11-01T01:16:34.759Z,10.01
2022-11-01T01:19:37.867Z,9.90
2022-11-01T01:22:40.889Z,9.91
2022-11-01T01:25:44.361Z,9.86
2022-11-01T01:28:47.327Z,9.66
2022-11-01T01:31:52.812Z,9.69
2022-11-01T01:34:56.045Z,9.71
2022-11-01T01:37:59.134Z,9.61
2022-11-01T01:41:22.296Z,9.66
2022-11-01T01:45:00.866Z,9.66
2022-11-01T01:48:13.886Z,9.65
2022-11-01T01:51:20.860Z,9.62
2022-11-01T01:54:23.793Z,9.46
2022-11-01T01:57:27.471Z,9.48
2022-11-01T02:00:30.435Z,8.95
2022-11-01T02:03:36.726Z,9.09
2022-11-01T02:06:40.509Z,8.96
2022-11-01T02:09:44.347Z,8.96
2022-11-01T02:12:49.182Z,8.92
2022-11-01T02:16:05.791Z,9.00
2022-11-01T02:19:47.112Z,9.05
2022-11-01T02:23:20.909Z,8.83
2022-11-01T02:26:54.736Z,8.65
2022-11-01T02:30:13.000Z,8.46
2022-11-01T02:33:30.468Z,8.29
2022-11-01T02:36:39.046Z,8.44
2022-11-01T02:39:48.058Z,8.36
2022-11-01T02:42:55.177Z,8.56
2022-11-01T02:46:19.732Z,8.53
2022-11-01T02:49:26.187Z,8.41
2022-11-01T02:52:32.835Z,8.58
2022-11-01T02:55:36.253Z,8.18
2022-11-01T02:58:39.328Z,8.18
2022-11-01T03:01:46.003Z,8.28
2022-11-01T03:04:50.465Z,8.22
2022-11-01T03:07:58.299Z,8.25
2022-11-01T03:11:07.665Z,8.21
2022-11-01T03:14:21.831Z,8.06
2022-11-01T03:17:33.513Z,8.00
2022-11-01T03:20:48.453Z,8.12
2022-11-01T03:23:54.994Z,8.12
2022-11-01T03:27:04.054Z,8.09
2022-11-01T03:30:10.460Z,8.08
2022-11-01T03:33:16.059Z,8.03
2022-11-01T03:36:23.412Z,7.84
2022-11-01T03:39:32.778Z,8.03
2022-11-01T03:42:38.449Z,7.97
2022-11-01T03:45:42.589Z,7.95
2022-11-01T03:48:45.643Z,7.90
2022-11-01T03:51:50.112Z,7.96
2022-11-01T03:54:52.958Z,8.00
2022-11-01T03:57:58.022Z,8.06
2022-11-01T04:01:01.042Z,8.16
2022-11-01T04:04:04.299Z,8.12
2022-11-01T04:07:08.552Z,8.06
2022-11-01T04:10:12.408Z,7.77
2022-11-01T04:13:15.333Z,7.72
2022-11-01T04:16:35.863Z,7.64
2022-11-01T04:19:56.288Z,7.72
2022-11-01T04:23:01.423Z,7.75
2022-11-01T04:26:06.455Z,7.95
2022-11-01T04:29:09.395Z,8.06
2022-11-01T04:32:12.316Z,8.21
2022-11-01T04:35:15.571Z,8.35
2022-11-01T04:38:19.760Z,8.22
2022-11-01T04:41:24.226Z,8.20
2022-11-01T04:44:27.213Z,8.29
2022-11-01T04:47:30.175Z,8.33
2022-11-01T04:50:33.785Z,8.43
2022-11-01T04:53:38.755Z,8.53
2022-11-01T04:56:41.668Z,8.75
2022-11-01T04:59:44.569Z,9.13
2022-11-01T05:02:47.535Z,9.26
2022-11-01T05:05:50.492Z,9.08
2022-11-01T05:08:56.868Z,9.15
2022-11-01T05:11:59.946Z,9.16
2022-11-01T05:15:02.996Z,9.18
2022-11-01T05:18:06.501Z,9.36
2022-11-01T05:21:09.396Z,9.76
2022-11-01T05:24:13.628Z,9.62
2022-11-01T05:27:16.537Z,9.89
2022-11-01T05:30:19.728Z,9.77
2022-11-01T05:33:22.650Z,9.37
2022-11-01T05:36:25.604Z,9.44
2022-11-01T05:39:29.878Z,9.48
2022-11-01T05:42:32.789Z,9.46
2022-11-01T05:45:35.779Z,9.52
2022-11-01T05:48:38.600Z,9.53
2022-11-01T05:51:41.557Z,9.45
2022-11-01T05:54:45.917Z,9.51
2022-11-01T06:00:51.695Z,9.43
2022-11-01T06:03:54.543Z,9.52
2022-11-01T06:06:57.587Z,9.57
2022-11-01T06:10:02.412Z,9.61
2022-11-01T06:13:05.694Z,9.63
2022-11-01T06:16:09.546Z,9.70
2022-11-01T06:19:12.670Z,9.71
2022-11-01T06:22:15.531Z,9.76
2022-11-01T06:25:19.764Z,9.83
2022-11-01T06:28:23.819Z,9.89
2022-11-01T06:31:26.785Z,9.93
2022-11-01T06:34:29.757Z,9.89
2022-11-01T06:37:32.769Z,9.97
2022-11-01T06:40:37.725Z,10.00
2022-11-01T06:43:40.584Z,10.05
2022-11-01T06:46:43.506Z,10.10
2022-11-01T06:49:46.442Z,10.21
2022-11-01T06:52:49.371Z,10.16
2022-11-01T06:55:53.780Z,10.20
2022-11-01T06:58:56.653Z,10.28
2022-11-01T07:01:59.731Z,10.26
2022-11-01T07:05:03.093Z,10.21
2022-11-01T07:08:07.292Z,10.30
2022-11-01T07:11:11.612Z,10.31
2022-11-01T07:14:14.709Z,10.65
2022-11-01T07:17:17.601Z,10.76
2022-11-01T07:20:20.499Z,11.00
2022-11-01T07:23:23.717Z,11.05
2022-11-01T07:26:27.963Z,11.18
2022-11-01T07:29:30.837Z,11.20
2022-11-01T07:32:37.620Z,11.31
2022-11-01T07:35:42.803Z,11.42
2022-11-01T07:38:45.662Z,11.71
2022-11-01T07:41:51.333Z,11.89
2022-11-01T07:44:54.254Z,12.09
2022-11-01T07:48:00.142Z,12.12
2022-11-01T07:51:05.707Z,12.24
2022-11-01T07:54:08.676Z,12.60
2022-11-01T07:57:12.893Z,12.62
2022-11-01T08:00:16.921Z,12.65
2022-11-01T08:03:20.658Z,12.78
2022-11-01T08:06:23.631Z,13.05
2022-11-01T08:09:26.659Z,13.17
2022-11-01T08:12:30.870Z,13.19
2022-11-01T08:15:34.662Z,13.31
2022-11-01T08:18:37.523Z,13.18
2022-11-01T08:21:40.372Z,13.29
2022-11-01T08:24:43.232Z,13.50
2022-11-01T08:27:47.777Z,13.59
2022-11-01T08:30:51.491Z,13.61
2022-11-01T08:33:55.412Z,13.64
2022-11-01T08:36:58.964Z,13.56
2022-11-01T08:40:02.201Z,13.62
2022-11-01T08:43:06.769Z,13.60
2022-11-01T08:46:10.681Z,13.59
2022-11-01T08:49:14.325Z,13.69
2022-11-01T08:52:17.295Z,13.82
2022-11-01T08:55:20.209Z,13.89
2022-11-01T08:58:25.007Z,14.00
2022-11-01T09:01:28.013Z,14.08
2022-11-01T09:04:31.021Z,14.07
2022-11-01T09:07:34.958Z,14.14
2022-11-01T09:10:37.904Z,14.24
2022-11-01T09:13:42.210Z,14.18
2022-11-01T09:16:45.381Z,14.25
2022-11-01T09:19:48.232Z,14.24
2022-11-01T09:22:52.565Z,14.37
2022-11-01T09:26:02.834Z,14.50
2022-11-01T09:29:07.373Z,14.52
2022-11-01T09:32:10.341Z,14.74
2022-11-01T09:35:13.442Z,14.69
2022-11-01T09:38:16.450Z,14.96
2022-11-01T09:41:31.207Z,14.96
2022-11-01T09:44:40.472Z,14.97
2022-11-01T09:47:46.194Z,15.10
2022-11-01T09:50:49.217Z,15.11
2022-11-01T09:53:55.120Z,15.12
2022-11-01T09:57:17.538Z,15.10
2022-11-01T10:00:22.841Z,15.06
2022-11-01T10:03:41.396Z,15.14
2022-11-01T10:06:51.597Z,15.19
2022-11-01T10:10:06.223Z,15.16
2022-11-01T10:13:23.703Z,15.11
2022-11-01T10:16:37.108Z,15.18
2022-11-01T10:19:41.654Z,15.13
2022-11-01T10:22:48.977Z,15.31
2022-11-01T10:25:54.899Z,15.42
2022-11-01T10:29:03.765Z,15.52
2022-11-01T10:32:21.053Z,15.62
2022-11-01T10:35:29.962Z,15.60
2022-11-01T10:39:10.400Z,15.78
2022-11-01T10:42:08.960Z,15.94
2022-11-01T10:45:16.531Z,15.99
2022-11-01T10:48:30.524Z,16.00
2022-11-01T10:51:35.759Z,16.10
2022-11-01T10:54:41.699Z,16.13
2022-11-01T10:57:50.838Z,16.11
2022-11-01T11:00:54.364Z,16.05
2022-11-01T11:04:02.454Z,16.09
2022-11-01T11:07:13.609Z,16.10
2022-11-01T11:10:23.947Z,16.24
2022-11-01T11:13:28.626Z,16.16
2022-11-01T11:16:35.302Z,16.17
2022-11-01T11:19:43.007Z,16.13
2022-11-01T11:22:46.142Z,16.25
2022-11-01T11:25:50.557Z,16.14
2022-11-01T11:28:56.930Z,16.16
2022-11-01T11:32:01.333Z,16.28
2022-11-01T11:35:16.360Z,16.22
2022-11-01T11:38:19.328Z,16.28
2022-11-01T11:41:30.737Z,16.23
2022-11-01T11:44:42.891Z,16.23
2022-11-01T11:47:46.996Z,16.34
2022-11-01T11:51:02.055Z,16.37
2022-11-01T11:54:24.270Z,16.38
2022-11-01T11:57:30.296Z,16.37
2022-11-01T12:00:39.268Z,16.49
2022-11-01T12:03:48.346Z,16.45
2022-11-01T12:06:52.793Z,16.51
2022-11-01T12:09:57.271Z,16.41
2022-11-01T12:13:01.118Z,16.39
2022-11-01T12:16:10.665Z,16.33
2022-11-01T12:19:25.743Z,16.32
2022-11-01T12:22:34.435Z,16.26
2022-11-01T12:25:39.226Z,16.33
2022-11-01T12:28:45.806Z,16.28
2022-11-01T12:31:50.387Z,16.27
2022-11-01T12:34:55.221Z,16.25
2022-11-01T12:38:26.729Z,16.24
2022-11-01T12:41:35.957Z,16.19
2022-11-01T12:44:43.306Z,16.23
2022-11-01T12:47:51.532Z,16.22
2022-11-01T12:50:59.490Z,16.22
2022-11-01T12:54:13.896Z,16.17
2022-11-01T12:57:18.615Z,16.28
2022-11-01T13:00:22.704Z,16.19
2022-11-01T13:03:35.677Z,16.20
2022-11-01T13:07:03.865Z,16.16
2022-11-01T13:10:16.273Z,16.11
2022-11-01T13:13:27.455Z,16.17
2022-11-01T13:16:36.725Z,16.12
2022-11-01T13:19:46.569Z,16.16
2022-11-01T13:22:57.837Z,16.14
2022-11-01T13:26:08.608Z,16.23
2022-11-01T13:29:18.550Z,16.30
2022-11-01T13:32:28.455Z,16.31
2022-11-01T13:35:49.167Z,16.32
2022-11-01T13:38:59.621Z,16.25
2022-11-01T13:42:10.354Z,16.31
2022-11-01T13:45:36.110Z,16.19
2022-11-01T13:49:02.620Z,16.23
2022-11-01T13:52:13.615Z,16.15
2022-11-01T13:55:22.066Z,16.20
2022-11-01T13:58:27.425Z,16.22
2022-11-01T14:01:35.527Z,16.24
2022-11-01T14:04:39.489Z,16.21
2022-11-01T14:08:14.720Z,16.16
2022-11-01T14:11:46.020Z,16.18
2022-11-01T14:14:54.204Z,16.12
2022-11-01T14:18:12.616Z,16.08
2022-11-01T14:21:29.008Z,16.04
2022-11-01T14:24:35.175Z,16.13
2022-11-01T14:27:40.611Z,16.26
2022-11-01T14:30:46.660Z,16.35
2022-11-01T14:33:49.700Z,16.42
2022-11-01T14:36:55.179Z,16.38
2022-11-01T14:40:27.190Z,16.34
2022-11-01T14:43:34.553Z,16.38
2022-11-01T14:46:46.215Z,16.22
2022-11-01T14:49:51.348Z,16.17
2022-11-01T14:53:00.719Z,16.14
2022-11-01T14:56:13.947Z,16.04
2022-11-01T14:59:22.094Z,16.04
2022-11-01T15:02:29.363Z,15.98
2022-11-01T15:05:32.319Z,15.76
2022-11-01T15:08:41.422Z,15.67
2022-11-01T15:11:44.429Z,15.66
2022-11-01T15:14:48.591Z,15.56
2022-11-01T15:17:56.452Z,15.63
2022-11-01T15:21:01.778Z,15.64
2022-11-01T15:24:05.107Z,15.53
2022-11-01T15:27:14.197Z,15.35
2022-11-01T15:30:22.536Z,15.31
2022-11-01T15:33:30.845Z,15.35
2022-11-01T15:36:36.942Z,15.24
2022-11-01T15:39:39.909Z,15.20
2022-11-01T15:42:49.029Z,15.21
2022-11-01T15:45:54.892Z,15.20
2022-11-01T15:49:05.679Z,15.05
2022-11-01T15:52:17.708Z,15.05
2022-11-01T15:55:28.756Z,15.18
2022-11-01T15:58:36.338Z,15.16
2022-11-01T16:01:39.655Z,15.13
2022-11-01T16:04:47.056Z,14.98
2022-11-01T16:07:50.856Z,15.05
2022-11-01T16:11:03.832Z,15.05
2022-11-01T16:14:09.221Z,14.91
2022-11-01T16:17:25.057Z,14.59
2022-11-01T16:20:34.016Z,14.65
2022-11-01T16:23:37.842Z,14.62
2022-11-01T16:26:54.546Z,14.63
2022-11-01T16:29:58.142Z,14.59
2022-11-01T16:33:09.282Z,14.54
2022-11-01T16:36:37.023Z,14.48
2022-11-01T16:39:42.058Z,14.13
2022-11-01T16:42:45.009Z,13.82
2022-11-01T16:45:47.993Z,13.81
2022-11-01T16:48:54.518Z,13.74
2022-11-01T16:51:59.482Z,13.72
2022-11-01T16:55:02.459Z,13.78
2022-11-01T16:58:05.870Z,13.80
2022-11-01T17:01:19.944Z,13.84
2022-11-01T17:04:24.023Z,13.94
2022-11-01T17:07:29.916Z,13.73
2022-11-01T17:10:34.930Z,13.91
2022-11-01T17:13:38.092Z,13.97
2022-11-01T17:16:43.447Z,13.91
2022-11-01T17:19:50.252Z,13.94
2022-11-01T17:22:56.390Z,13.91
2022-11-01T17:25:59.673Z,13.83
2022-11-01T17:29:02.632Z,13.56
2022-11-01T17:32:09.722Z,13.56
2022-11-01T17:35:12.841Z,13.46
2022-11-01T17:38:20.722Z,13.52
2022-11-01T17:41:23.622Z,13.46
2022-11-01T17:44:27.001Z,13.51
2022-11-01T17:47:29.929Z,13.56
2022-11-01T17:50:33.550Z,13.53
2022-11-01T17:53:39.454Z,13.45
2022-11-01T17:56:42.628Z,13.41
2022-11-01T17:59:45.569Z,13.31
2022-11-01T18:02:49.024Z,13.24
2022-11-01T18:05:52.092Z,13.15
2022-11-01T18:08:56.353Z,13.15
2022-11-01T18:12:04.728Z,13.15
2022-11-01T18:15:20.419Z,13.03
2022-11-01T18:18:33.105Z,12.94
2022-11-01T18:21:45.878Z,12.90
2022-11-01T18:24:53.474Z,12.72
2022-11-01T18:28:01.938Z,12.69
2022-11-01T18:31:14.105Z,12.78
2022-11-01T18:34:30.052Z,12.77
2022-11-01T18:37:41.647Z,12.68
2022-11-01T18:40:55.608Z,12.53
2022-11-01T18:43:58.685Z,12.48
2022-11-01T18:47:08.689Z,12.59
2022-11-01T18:50:21.014Z,12.69
2022-11-01T18:53:25.173Z,12.70
2022-11-01T18:56:30.718Z,12.67
2022-11-01T18:59:36.767Z,12.64
2022-11-01T19:02:41.004Z,12.64
2022-11-01T19:05:44.489Z,12.52
2022-11-01T19:08:52.896Z,12.50
2022-11-01T19:12:01.247Z,12.51
2022-11-01T19:15:08.945Z,12.21
2022-11-01T19:18:18.764Z,12.26
2022-11-01T19:21:23.680Z,12.25
2022-11-01T19:24:35.669Z,12.21
2022-11-01T19:27:56.497Z,12.35
2022-11-01T19:31:07.987Z,12.34
2022-11-01T19:34:21.092Z,12.22
2022-11-01T19:37:34.660Z,12.10
2022-11-01T19:40:41.503Z,12.12
2022-11-01T19:43:47.668Z,11.77
2022-11-01T19:46:52.349Z,11.76
2022-11-01T19:49:58.636Z,11.81
2022-11-01T19:53:01.670Z,11.80
2022-11-01T19:56:06.425Z,11.69
2022-11-01T19:59:19.577Z,11.71
2022-11-01T20:02:23.965Z,11.57
2022-11-01T20:05:29.590Z,11.59
2022-11-01T20:08:34.436Z,11.55
2022-11-01T20:11:40.688Z,11.45
2022-11-01T20:14:50.311Z,11.27
2022-11-01T20:17:53.271Z,11.26
2022-11-01T20:20:56.606Z,11.16
2022-11-01T20:24:00.037Z,11.08
2022-11-01T20:27:05.152Z,11.13
2022-11-01T20:30:11.650Z,11.20
2022-11-01T20:33:16.136Z,11.18
2022-11-01T20:36:19.002Z,11.07
2022-11-01T20:39:25.039Z,11.01
2022-11-01T20:42:28.207Z,11.15
2022-11-01T20:45:34.468Z,10.98
2022-11-01T20:48:38.112Z,10.99
2022-11-01T20:51:41.548Z,10.93
2022-11-01T20:54:44.403Z,10.96
2022-11-01T20:57:47.393Z,11.05
2022-11-01T21:00:52.121Z,10.97
2022-11-01T21:03:55.873Z,10.77
2022-11-01T21:07:03.674Z,10.80
2022-11-01T21:10:28.267Z,10.80
2022-11-01T21:13:33.156Z,10.75
2022-11-01T21:16:39.590Z,10.57
2022-11-01T21:19:42.479Z,10.32
2022-11-01T21:22:45.367Z,10.32
2022-11-01T21:25:53.405Z,10.27
2022-11-01T21:29:03.705Z,9.78
2022-11-01T21:32:29.556Z,10.19
2022-11-01T21:35:40.795Z,10.46
2022-11-01T21:38:43.998Z,10.45
2022-11-01T21:41:48.977Z,10.78
2022-11-01T21:44:52.210Z,10.76
2022-11-01T21:48:02.082Z,10.62
2022-11-01T21:51:05.376Z,10.55
2022-11-01T21:54:08.513Z,10.71
2022-11-01T21:57:12.305Z,10.64
2022-11-01T22:00:16.426Z,10.66
2022-11-01T22:03:20.699Z,10.69
2022-11-01T22:06:23.577Z,10.76
2022-11-01T22:09:26.475Z,10.75
2022-11-01T22:12:29.459Z,10.70
2022-11-01T22:15:32.446Z,10.71
2022-11-01T22:18:36.776Z,10.74
2022-11-01T22:21:39.634Z,10.68
2022-11-01T22:24:42.669Z,10.73
2022-11-01T22:27:45.690Z,10.67
2022-11-01T22:30:48.681Z,10.67
2022-11-01T22:33:54.275Z,10.64
2022-11-01T22:36:57.813Z,10.56
2022-11-01T22:40:00.685Z,10.55
2022-11-01T22:43:11.550Z,10.56
2022-11-01T22:46:21.190Z,10.57
2022-11-01T22:49:29.853Z,10.48
2022-11-01T22:52:37.916Z,10.49
2022-11-01T22:55:43.909Z,10.44
2022-11-01T22:58:47.237Z,10.47
2022-11-01T23:01:57.687Z,10.45
2022-11-01T23:05:21.347Z,10.34
2022-11-01T23:08:27.523Z,10.34
2022-11-01T23:11:48.297Z,10.24
2022-11-01T23:14:51.321Z,10.25
2022-11-01T23:17:54.596Z,10.20
2022-11-01T23:21:02.004Z,10.15
2022-11-01T23:24:05.241Z,10.18
2022-11-01T23:27:08.246Z,10.22
2022-11-01T23:30:12.207Z,10.26
2022-11-01T23:33:17.117Z,10.27
2022-11-01T23:36:24.316Z,10.20
2022-11-01T23:39:34.056Z,10.14
2022-11-01T23:42:37.691Z,10.09
2022-11-01T23:45:40.900Z,10.00
2022-11-01T23:48:44.619Z,9.94
2022-11-01T23:51:49.204Z,9.93
2022-11-01T23:54:52.163Z,9.69
2022-11-01T23:57:56.978Z,9.67
